createdAt,value
2019-03-23T00:03:00.918Z,98003.05
2019-03-23T00:07:55.655Z,98012.13
2019-03-23T00:12:50.271Z,98006.92
2019-03-23T00:17:44.904Z,98009.02
2019-03-23T00:22:39.504Z,98006.09
2019-03-23T00:27:34.120Z,98002.36
2019-03-23T00:32:28.810Z,98012.43
2019-03-23T00:37:23.435Z,98002.64
2019-03-23T00:42:18.031Z,97999.70
2019-03-23T00:47:12.693Z,98006.46
2019-03-23T00:52:07.369Z,97999.97
2019-03-23T00:57:02.086Z,97998.03
2019-03-23T01:01:56.734Z,97995.73
2019-03-23T01:06:52.401Z,98001.55
2019-03-23T01:11:47.448Z,97999.41
2019-03-23T01:16:42.113Z,97999.38
2019-03-23T01:21:36.675Z,98000.44
2019-03-23T01:26:31.280Z,97996.83
2019-03-23T01:31:25.871Z,97996.49
2019-03-23T01:36:20.497Z,97992.59
2019-03-23T01:41:15.113Z,97992.77
2019-03-23T01:46:09.702Z,97993.89
2019-03-23T01:51:04.424Z,97989.64
2019-03-23T01:55:59.051Z,97987.74
2019-03-23T02:00:53.748Z,97984.86
2019-03-23T02:05:48.349Z,97985.47
2019-03-23T02:10:42.944Z,97980.69
2019-03-23T02:15:37.550Z,97986.77
2019-03-23T02:20:32.160Z,97997.17
2019-03-23T02:25:26.779Z,97994.17
2019-03-23T02:30:21.373Z,97992.40
2019-03-23T02:35:15.967Z,98000.61
2019-03-23T02:40:11.794Z,97991.80
2019-03-23T02:45:09.878Z,98002.67
2019-03-23T02:50:07.244Z,98000.38
2019-03-23T02:55:01.848Z,98004.27
2019-03-23T02:59:56.514Z,97999.38
2019-03-23T03:04:51.137Z,97996.05
2019-03-23T03:09:45.743Z,97999.45
2019-03-23T03:14:40.336Z,97994.38
2019-03-23T03:19:34.928Z,97997.25
2019-03-23T03:24:29.535Z,97996.73
2019-03-23T03:29:24.117Z,97991.69
2019-03-23T03:34:18.710Z,98000.70
2019-03-23T03:39:13.288Z,98006.55
2019-03-23T03:44:07.878Z,98004.87
2019-03-23T03:49:12.182Z,98004.87
2019-03-23T03:53:58.801Z,98002.02
2019-03-23T03:58:53.417Z,98008.72
2019-03-23T04:03:48.026Z,98006.89
2019-03-23T04:08:42.629Z,98007.52
2019-03-23T04:13:37.707Z,98014.76
2019-03-23T04:18:32.282Z,98011.80
2019-03-23T04:23:26.882Z,98018.61
2019-03-23T04:28:21.498Z,98018.23
2019-03-23T04:33:16.083Z,98018.38
2019-03-23T04:38:21.975Z,98015.95
2019-03-23T04:43:07.083Z,98012.56
2019-03-23T04:48:01.695Z,98011.52
2019-03-23T04:52:56.296Z,98018.94
2019-03-23T04:57:50.888Z,98020.33
2019-03-23T05:02:45.557Z,98028.55
2019-03-23T05:07:40.152Z,98025.63
2019-03-23T05:12:34.755Z,98030.95
2019-03-23T05:17:29.351Z,98027.10
2019-03-23T05:22:23.971Z,98032.67
2019-03-23T05:27:18.579Z,98034.95
2019-03-23T05:32:13.264Z,98030.49
2019-03-23T05:37:07.852Z,98037.13
2019-03-23T05:42:02.487Z,98036.49
2019-03-23T05:46:57.076Z,98038.58
2019-03-23T05:51:51.678Z,98031.66
2019-03-23T05:56:46.294Z,98029.23
2019-03-23T06:01:40.906Z,98035.20
2019-03-23T06:06:35.492Z,98026.98
2019-03-23T06:11:30.094Z,98023.55
2019-03-23T06:16:24.696Z,98021.63
2019-03-23T06:21:19.287Z,98021.66
2019-03-23T06:26:14.003Z,98014.05
2019-03-23T06:31:08.598Z,98020.13
2019-03-23T06:36:03.192Z,98019.41
2019-03-23T06:40:57.797Z,98017.51
2019-03-23T06:45:52.396Z,98018.27
2019-03-23T06:50:47.004Z,98019.85
2019-03-23T06:55:41.604Z,98021.23
2019-03-23T07:00:36.214Z,98018.70
2019-03-23T07:05:30.890Z,98023.55
2019-03-23T07:10:25.476Z,98023.62
2019-03-23T07:15:20.671Z,98021.00
2019-03-23T07:20:16.781Z,98024.94
2019-03-23T07:25:12.767Z,98030.22
2019-03-23T07:30:17.325Z,98034.92
2019-03-23T07:35:12.447Z,98038.14
2019-03-23T07:40:10.424Z,98041.78
2019-03-23T07:45:09.041Z,98036.11
2019-03-23T07:50:05.832Z,98027.61
2019-03-23T07:55:10.379Z,98029.45
2019-03-23T08:00:09.513Z,98024.78
2019-03-23T08:05:06.283Z,98021.95
2019-03-23T08:10:00.880Z,98021.26
2019-03-23T08:14:55.494Z,98011.07
2019-03-23T08:19:50.075Z,98013.77
2019-03-23T08:24:44.662Z,98016.09
2019-03-23T08:29:39.260Z,98014.16
2019-03-23T08:34:33.879Z,98014.84
2019-03-23T08:39:28.501Z,98021.58
2019-03-23T08:44:23.115Z,98013.89
2019-03-23T08:49:17.713Z,98017.81
2019-03-23T08:54:12.316Z,98014.59
2019-03-23T08:59:06.914Z,98017.77
2019-03-23T09:04:01.529Z,98015.30
2019-03-23T09:08:56.147Z,98006.47
2019-03-23T09:13:50.755Z,98004.14
2019-03-23T09:18:45.349Z,98003.59
2019-03-23T09:23:39.960Z,98001.14
2019-03-23T09:28:34.561Z,98000.83
2019-03-23T09:33:29.184Z,97998.90
2019-03-23T09:38:23.784Z,97995.70
2019-03-23T09:43:18.387Z,97977.95
2019-03-23T09:48:13.004Z,97979.39
2019-03-23T09:53:07.621Z,97968.17
2019-03-23T09:58:02.227Z,97962.12
2019-03-23T10:02:56.836Z,97958.75
2019-03-23T10:07:51.439Z,97947.25
2019-03-23T10:12:46.046Z,97951.78
2019-03-23T10:17:40.668Z,97944.09
2019-03-23T10:22:35.331Z,97942.13
2019-03-23T10:27:29.946Z,97932.74
2019-03-23T10:32:24.544Z,97930.52
2019-03-23T10:37:19.164Z,97920.16
2019-03-23T10:42:16.130Z,97917.22
2019-03-23T10:47:10.101Z,97913.08
2019-03-23T10:52:04.711Z,97913.78
2019-03-23T10:56:59.324Z,97903.48
2019-03-23T11:01:54.006Z,97891.17
2019-03-23T11:06:48.604Z,97884.64
2019-03-23T11:11:43.230Z,97889.16
2019-03-23T11:16:37.832Z,97890.44
2019-03-23T11:21:32.534Z,97879.74
2019-03-23T11:26:28.117Z,97869.48
2019-03-23T11:31:22.915Z,97864.30
2019-03-23T11:36:17.527Z,97857.76
2019-03-23T11:41:12.149Z,97864.06
2019-03-23T11:46:06.746Z,97852.43
2019-03-23T11:51:01.365Z,97844.33
2019-03-23T11:55:55.951Z,97836.96
2019-03-23T12:00:50.566Z,97831.10
2019-03-23T12:05:45.159Z,97828.69
2019-03-23T12:10:39.764Z,97821.06
2019-03-23T12:15:34.353Z,97809.34
2019-03-23T12:20:28.949Z,97809.80
2019-03-23T12:25:23.544Z,97805.19
2019-03-23T12:30:19.448Z,97796.86
2019-03-23T12:35:14.301Z,97793.96
2019-03-23T12:40:10.616Z,97793.73
2019-03-23T12:45:07.824Z,97785.22
2019-03-23T12:50:02.438Z,97783.96
2019-03-23T12:54:57.034Z,97777.35
2019-03-23T12:59:51.667Z,97778.11
2019-03-23T13:04:46.277Z,97768.62
2019-03-23T13:09:40.863Z,97758.34
2019-03-23T13:14:35.467Z,97761.68
2019-03-23T13:19:30.085Z,97754.33
2019-03-23T13:24:24.779Z,97753.80
2019-03-23T13:29:19.366Z,97739.34
2019-03-23T13:34:14.024Z,97737.56
2019-03-23T13:39:08.732Z,97730.94
2019-03-23T13:44:03.343Z,97728.41
2019-03-23T13:48:57.954Z,97726.78
2019-03-23T13:53:52.553Z,97728.64
2019-03-23T13:58:47.238Z,97719.97
2019-03-23T14:03:41.859Z,97711.52
2019-03-23T14:08:36.472Z,97702.55
2019-03-23T14:13:31.514Z,97704.39
2019-03-23T14:18:26.136Z,97701.73
2019-03-23T14:23:20.804Z,97704.92
2019-03-23T14:28:15.428Z,97692.81
2019-03-23T14:33:10.015Z,97690.80
2019-03-23T14:38:04.734Z,97680.68
2019-03-23T14:42:59.326Z,97680.55
2019-03-23T14:47:53.933Z,97677.12
2019-03-23T14:52:48.514Z,97684.80
2019-03-23T14:57:43.159Z,97672.32
2019-03-23T15:02:37.746Z,97671.77
2019-03-23T15:07:32.361Z,97666.24
2019-03-23T15:12:26.956Z,97666.33
2019-03-23T15:17:21.586Z,97660.92
2019-03-23T15:22:16.161Z,97665.42
2019-03-23T15:27:10.777Z,97666.33
2019-03-23T15:32:05.369Z,97670.14
2019-03-23T15:36:59.998Z,97663.98
2019-03-23T15:41:54.594Z,97666.09
2019-03-23T15:46:49.216Z,97661.50
2019-03-23T15:51:43.789Z,97656.31
2019-03-23T15:56:38.399Z,97656.99
2019-03-23T16:01:32.987Z,97652.89
2019-03-23T16:06:27.606Z,97654.34
2019-03-23T16:11:22.194Z,97652.25
2019-03-23T16:16:16.799Z,97656.86
2019-03-23T16:21:11.392Z,97652.72
2019-03-23T16:26:06.134Z,97651.89
2019-03-23T16:31:00.757Z,97657.16
2019-03-23T16:35:55.382Z,97653.91
2019-03-23T16:40:49.969Z,97649.86
2019-03-23T16:45:44.591Z,97651.66
2019-03-23T16:50:39.271Z,97652.02
2019-03-23T16:55:33.890Z,97648.53
2019-03-23T17:00:39.398Z,97654.93
2019-03-23T17:05:36.300Z,97658.94
2019-03-23T17:10:30.510Z,97656.14
2019-03-23T17:15:25.112Z,97653.82
2019-03-23T17:20:19.735Z,97660.26
2019-03-23T17:25:14.401Z,97668.43
2019-03-23T17:30:12.834Z,97661.72
2019-03-23T17:35:09.620Z,97666.38
2019-03-23T17:40:07.402Z,97667.47
2019-03-23T17:45:02.014Z,97670.63
2019-03-23T17:49:57.331Z,97672.74
2019-03-23T17:54:52.287Z,97686.32
2019-03-23T17:59:46.892Z,97681.78
2019-03-23T18:04:41.500Z,97688.14
2019-03-23T18:09:36.113Z,97699.05
2019-03-23T18:14:30.726Z,97695.22
2019-03-23T18:19:25.327Z,97699.13
2019-03-23T18:24:19.977Z,97703.83
2019-03-23T18:29:14.584Z,97708.20
2019-03-23T18:34:09.194Z,97709.92
2019-03-23T18:39:05.166Z,97706.83
2019-03-23T18:43:59.785Z,97710.08
2019-03-23T18:48:54.382Z,97708.16
2019-03-23T18:53:48.972Z,97719.04
2019-03-23T18:58:43.592Z,97722.11
2019-03-23T19:03:40.359Z,97716.72
2019-03-23T19:08:34.524Z,97729.87
2019-03-23T19:13:37.573Z,97731.48
2019-03-23T19:18:25.468Z,97729.39
2019-03-23T19:23:20.082Z,97744.94
2019-03-23T19:28:14.696Z,97744.45
2019-03-23T19:33:09.300Z,97743.93
2019-03-23T19:38:14.866Z,97748.55
2019-03-23T19:43:09.463Z,97746.59
2019-03-23T19:48:04.381Z,97746.98
2019-03-23T19:52:58.980Z,97752.59
2019-03-23T19:57:54.748Z,97760.66
2019-03-23T20:02:49.396Z,97759.14
2019-03-23T20:07:44.018Z,97769.22
2019-03-23T20:12:38.802Z,97770.89
2019-03-23T20:17:33.394Z,97773.15
2019-03-23T20:22:27.996Z,97775.41
2019-03-23T20:27:22.587Z,97785.59
2019-03-23T20:32:17.197Z,97791.95
2019-03-23T20:37:11.765Z,97802.02
2019-03-23T20:42:06.537Z,97800.17
2019-03-23T20:47:01.209Z,97805.19
2019-03-23T20:51:56.350Z,97804.52
2019-03-23T20:56:50.932Z,97804.91
2019-03-23T21:01:45.565Z,97794.92
2019-03-23T21:06:40.205Z,97792.98
2019-03-23T21:11:35.461Z,97783.34
2019-03-23T21:16:30.124Z,97780.61
2019-03-23T21:21:24.715Z,97777.56
2019-03-23T21:26:19.330Z,97775.34
2019-03-23T21:31:13.916Z,97773.83
2019-03-23T21:36:08.516Z,97762.69
2019-03-23T21:41:03.088Z,97757.19
2019-03-23T21:45:57.744Z,97753.17
2019-03-23T21:50:53.887Z,97754.27
2019-03-23T21:55:48.503Z,97749.16
2019-03-23T22:00:43.087Z,97742.77
2019-03-23T22:05:37.754Z,97747.46
2019-03-23T22:10:32.453Z,97753.11
2019-03-23T22:15:28.737Z,97745.30
2019-03-23T22:20:23.335Z,97746.27
2019-03-23T22:25:17.937Z,97746.87
2019-03-23T22:30:17.460Z,97754.34
2019-03-23T22:35:12.182Z,97749.69
2019-03-23T22:40:09.867Z,97744.48
2019-03-23T22:45:10.016Z,97744.31
2019-03-23T22:50:07.008Z,97741.27
2019-03-23T22:55:01.605Z,97735.45
2019-03-23T22:59:56.211Z,97738.66
2019-03-23T23:04:50.805Z,97733.50
2019-03-23T23:09:45.425Z,97722.04
2019-03-23T23:14:40.036Z,97724.03
2019-03-23T23:19:34.627Z,97722.46
2019-03-23T23:24:29.218Z,97721.22
2019-03-23T23:29:23.827Z,97714.57
2019-03-23T23:34:18.423Z,97713.92
2019-03-23T23:39:13.004Z,97696.73
2019-03-23T23:44:07.595Z,97702.63
2019-03-23T23:49:02.195Z,97694.03
2019-03-23T23:53:56.798Z,97693.78
2019-03-23T23:58:51.388Z,97696.81
